Chino Valley, AZ

1:27 AM MST on March 24, 2017 (GMT -0700)
Road 1 North | | Change Station

Elev 4751 ft 34.75 °N, 112.46 °W | Updated 3 seconds ago

Clear
Clear
35.1 °F
Feels Like 35 °F
N
0.0
Wind Variable Wind from NE

Today
High -- | Low -- °F
--% Chance of Precip.
Yesterday
High -- | Low -- °F
Precip. -- in
Pressure 30.09 in
Visibility 10.0 miles
Clouds Clear
Windchill 35 °F
Dew Point 32 °F
Humidity 88%
Rainfall 0.52 in
Snow Depth Not available.
6:27 AM 6:44 PM
Waning Crescent, 17% visible
METAR KPRC 240753Z AUTO 06005KT 10SM CLR 04/00 A3017 RMK AO2 SLP188 T00390000
Pressure 30.09 in
Visibility 10.0 miles
Clouds Clear
Windchill 35 °F
Dew Point 32 °F
Humidity 88%
Rainfall 0.52 in
Snow Depth Not available.
6:27 AM 6:44 PM
Waning Crescent, 17% visible
METAR KPRC 240753Z AUTO 06005KT 10SM CLR 04/00 A3017 RMK AO2 SLP188 T00390000

Get Severe Weather Alerts

Thanks for signing up!

Be on the lookout for a verification email in your inbox.

You'll start receiving the daily forecast at 8 AM.

×

10-Day Weather Forecast

Almanac

Astronomy

Mar. 24, 2017 Rise Set
Actual Time
Civil Twilight
Nautical Twilight
Astronomical Twilight
Moon
Length of Visible Light
Length of Day
Tomorrow will be .
, % of the Moon is Illuminated

Today's Extremes

State Highs State Lows

Community

WunderPhotos

Upload Photos

1,962,540 photos uploaded!

WunderBlog® & News

Nearby

Air Quality

  Air Quality AQ Index Pollutant
Not available.

Snow Depth

Station Depth Elevation

Earthquake Activity

City Distance Mag. Time & Date
Minimum magnitude displayed is 2.5.

Earthquake Activity

City Distance Mag. Time & Date
Minimum magnitude displayed is 2.5.

Coastal Water Temperatures

Place Temperature

Stations

Nearby Weather Stations

Station Location Temp. Windchill Dew Point Humidity Wind Precip. Elev Updated Type
                   

Watches & Warnings

There are currently no watches in effect.